sensor_id;sensor_type;location;lat;lon;timestamp;P1;durP1;ratioP1;P2;durP2;ratioP2
19301;SDS011;9785;59.362;12.152;2023-06-26T00:01:12;4.70;;;4.33;;
19301;SDS011;9785;59.362;12.152;2023-06-26T00:03:41;5.53;;;4.43;;
19301;SDS011;9785;59.362;12.152;2023-06-26T00:06:09;5.23;;;4.37;;
19301;SDS011;9785;59.362;12.152;2023-06-26T00:08:38;5.00;;;4.60;;
19301;SDS011;9785;59.362;12.152;2023-06-26T00:11:06;7.57;;;4.70;;
19301;SDS011;9785;59.362;12.152;2023-06-26T00:13:35;6.10;;;4.73;;
19301;SDS011;9785;59.362;12.152;2023-06-26T00:16:04;6.20;;;4.87;;
19301;SDS011;9785;59.362;12.152;2023-06-26T00:18:34;6.37;;;5.10;;
19301;SDS011;9785;59.362;12.152;2023-06-26T00:21:02;5.77;;;5.20;;
19301;SDS011;9785;59.362;12.152;2023-06-26T00:23:31;6.13;;;5.47;;
19301;SDS011;9785;59.362;12.152;2023-06-26T00:26:05;7.93;;;5.33;;
19301;SDS011;9785;59.362;12.152;2023-06-26T00:28:35;6.03;;;5.43;;
19301;SDS011;9785;59.362;12.152;2023-06-26T00:31:04;5.50;;;5.00;;
19301;SDS011;9785;59.362;12.152;2023-06-26T00:33:34;6.40;;;5.40;;
19301;SDS011;9785;59.362;12.152;2023-06-26T00:36:03;6.30;;;4.97;;
19301;SDS011;9785;59.362;12.152;2023-06-26T00:38:31;5.40;;;4.90;;
19301;SDS011;9785;59.362;12.152;2023-06-26T00:41:00;6.53;;;4.90;;
19301;SDS011;9785;59.362;12.152;2023-06-26T00:43:28;5.20;;;4.70;;
19301;SDS011;9785;59.362;12.152;2023-06-26T00:45:57;5.40;;;4.73;;
19301;SDS011;9785;59.362;12.152;2023-06-26T00:48:26;5.87;;;5.00;;
19301;SDS011;9785;59.362;12.152;2023-06-26T00:50:57;7.57;;;5.27;;
19301;SDS011;9785;59.362;12.152;2023-06-26T00:53:25;5.93;;;5.33;;
19301;SDS011;9785;59.362;12.152;2023-06-26T00:55:54;5.90;;;5.40;;
19301;SDS011;9785;59.362;12.152;2023-06-26T00:58:23;6.53;;;5.93;;
19301;SDS011;9785;59.362;12.152;2023-06-26T01:00:52;5.90;;;5.30;;
19301;SDS011;9785;59.362;12.152;2023-06-26T01:03:21;7.23;;;6.27;;
19301;SDS011;9785;59.362;12.152;2023-06-26T01:05:50;8.13;;;6.67;;
19301;SDS011;9785;59.362;12.152;2023-06-26T01:08:21;7.07;;;6.40;;
19301;SDS011;9785;59.362;12.152;2023-06-26T01:10:50;6.43;;;5.77;;
19301;SDS011;9785;59.362;12.152;2023-06-26T01:13:19;6.20;;;5.10;;
19301;SDS011;9785;59.362;12.152;2023-06-26T01:15:47;7.27;;;5.50;;
19301;SDS011;9785;59.362;12.152;2023-06-26T01:18:16;6.90;;;5.57;;
19301;SDS011;9785;59.362;12.152;2023-06-26T01:20:45;6.20;;;5.40;;
19301;SDS011;9785;59.362;12.152;2023-06-26T01:23:14;6.70;;;6.00;;
19301;SDS011;9785;59.362;12.152;2023-06-26T01:25:51;7.70;;;6.30;;
19301;SDS011;9785;59.362;12.152;2023-06-26T01:28:25;8.90;;;7.50;;
19301;SDS011;9785;59.362;12.152;2023-06-26T01:30:55;8.30;;;7.20;;
19301;SDS011;9785;59.362;12.152;2023-06-26T01:33:23;11.00;;;7.50;;
19301;SDS011;9785;59.362;12.152;2023-06-26T01:35:52;20.73;;;6.00;;
19301;SDS011;9785;59.362;12.152;2023-06-26T01:38:21;8.37;;;5.97;;
19301;SDS011;9785;59.362;12.152;2023-06-26T01:40:50;7.73;;;6.60;;
19301;SDS011;9785;59.362;12.152;2023-06-26T01:43:20;6.30;;;5.43;;
19301;SDS011;9785;59.362;12.152;2023-06-26T01:45:52;6.30;;;5.70;;
19301;SDS011;9785;59.362;12.152;2023-06-26T01:48:23;6.20;;;5.60;;
19301;SDS011;9785;59.362;12.152;2023-06-26T01:50:52;7.83;;;6.10;;
19301;SDS011;9785;59.362;12.152;2023-06-26T01:53:24;10.40;;;6.67;;
19301;SDS011;9785;59.362;12.152;2023-06-26T01:55:54;7.93;;;6.30;;
19301;SDS011;9785;59.362;12.152;2023-06-26T01:58:23;12.90;;;7.40;;
19301;SDS011;9785;59.362;12.152;2023-06-26T02:00:54;9.87;;;7.60;;
19301;SDS011;9785;59.362;12.152;2023-06-26T02:03:23;7.87;;;6.50;;
19301;SDS011;9785;59.362;12.152;2023-06-26T02:05:53;8.27;;;6.27;;
19301;SDS011;9785;59.362;12.152;2023-06-26T02:08:21;7.60;;;6.70;;
19301;SDS011;9785;59.362;12.152;2023-06-26T02:10:50;7.27;;;6.57;;
19301;SDS011;9785;59.362;12.152;2023-06-26T02:13:18;8.63;;;6.93;;
19301;SDS011;9785;59.362;12.152;2023-06-26T02:15:47;8.57;;;6.90;;
19301;SDS011;9785;59.362;12.152;2023-06-26T02:18:17;8.17;;;7.07;;
19301;SDS011;9785;59.362;12.152;2023-06-26T02:20:47;7.90;;;6.00;;
19301;SDS011;9785;59.362;12.152;2023-06-26T02:23:16;7.30;;;6.03;;
19301;SDS011;9785;59.362;12.152;2023-06-26T02:25:45;6.40;;;5.80;;
19301;SDS011;9785;59.362;12.152;2023-06-26T02:28:13;7.13;;;5.77;;
19301;SDS011;9785;59.362;12.152;2023-06-26T02:30:42;7.93;;;5.77;;
19301;SDS011;9785;59.362;12.152;2023-06-26T02:33:10;6.57;;;5.60;;
19301;SDS011;9785;59.362;12.152;2023-06-26T02:35:40;6.67;;;5.10;;
19301;SDS011;9785;59.362;12.152;2023-06-26T02:38:09;6.10;;;5.00;;
19301;SDS011;9785;59.362;12.152;2023-06-26T02:40:39;5.97;;;5.30;;
19301;SDS011;9785;59.362;12.152;2023-06-26T02:43:08;8.43;;;6.20;;
19301;SDS011;9785;59.362;12.152;2023-06-26T02:45:36;8.70;;;6.93;;
19301;SDS011;9785;59.362;12.152;2023-06-26T02:48:05;9.00;;;6.97;;
19301;SDS011;9785;59.362;12.152;2023-06-26T02:50:34;8.50;;;6.83;;
19301;SDS011;9785;59.362;12.152;2023-06-26T02:53:04;8.27;;;6.80;;
19301;SDS011;9785;59.362;12.152;2023-06-26T02:55:33;7.20;;;6.33;;
19301;SDS011;9785;59.362;12.152;2023-06-26T02:58:02;7.03;;;6.30;;
19301;SDS011;9785;59.362;12.152;2023-06-26T03:00:31;7.50;;;6.47;;
19301;SDS011;9785;59.362;12.152;2023-06-26T03:03:00;7.40;;;6.03;;
19301;SDS011;9785;59.362;12.152;2023-06-26T03:05:30;9.37;;;6.20;;
19301;SDS011;9785;59.362;12.152;2023-06-26T03:07:58;6.67;;;5.90;;
19301;SDS011;9785;59.362;12.152;2023-06-26T03:10:28;6.03;;;5.47;;
19301;SDS011;9785;59.362;12.152;2023-06-26T03:12:57;5.63;;;5.13;;
19301;SDS011;9785;59.362;12.152;2023-06-26T03:15:26;6.03;;;4.83;;
19301;SDS011;9785;59.362;12.152;2023-06-26T03:17:54;5.80;;;5.20;;
19301;SDS011;9785;59.362;12.152;2023-06-26T03:20:23;6.00;;;5.40;;
19301;SDS011;9785;59.362;12.152;2023-06-26T03:22:52;6.73;;;5.60;;
19301;SDS011;9785;59.362;12.152;2023-06-26T03:25:20;9.73;;;7.03;;
19301;SDS011;9785;59.362;12.152;2023-06-26T03:27:50;8.80;;;7.53;;
19301;SDS011;9785;59.362;12.152;2023-06-26T03:30:19;8.93;;;7.13;;
19301;SDS011;9785;59.362;12.152;2023-06-26T03:32:48;7.77;;;6.97;;
19301;SDS011;9785;59.362;12.152;2023-06-26T03:35:16;11.20;;;6.60;;
19301;SDS011;9785;59.362;12.152;2023-06-26T03:37:45;9.43;;;6.80;;
19301;SDS011;9785;59.362;12.152;2023-06-26T03:40:14;9.00;;;7.47;;
19301;SDS011;9785;59.362;12.152;2023-06-26T03:42:42;10.30;;;8.17;;
19301;SDS011;9785;59.362;12.152;2023-06-26T03:45:12;8.47;;;7.60;;
19301;SDS011;9785;59.362;12.152;2023-06-26T03:47:41;12.60;;;7.60;;
19301;SDS011;9785;59.362;12.152;2023-06-26T03:50:09;7.90;;;7.10;;
19301;SDS011;9785;59.362;12.152;2023-06-26T03:52:38;9.60;;;7.83;;
19301;SDS011;9785;59.362;12.152;2023-06-26T03:55:07;8.17;;;7.10;;
19301;SDS011;9785;59.362;12.152;2023-06-26T03:57:36;7.73;;;6.93;;
19301;SDS011;9785;59.362;12.152;2023-06-26T04:00:04;7.67;;;6.87;;
19301;SDS011;9785;59.362;12.152;2023-06-26T04:02:36;8.23;;;7.13;;
19301;SDS011;9785;59.362;12.152;2023-06-26T04:05:05;7.97;;;6.80;;
19301;SDS011;9785;59.362;12.152;2023-06-26T04:07:34;9.07;;;6.93;;
19301;SDS011;9785;59.362;12.152;2023-06-26T04:10:03;7.77;;;6.97;;
19301;SDS011;9785;59.362;12.152;2023-06-26T04:12:31;8.03;;;7.03;;
19301;SDS011;9785;59.362;12.152;2023-06-26T04:15:00;8.57;;;6.83;;
19301;SDS011;9785;59.362;12.152;2023-06-26T04:17:29;8.40;;;7.20;;
19301;SDS011;9785;59.362;12.152;2023-06-26T04:19:59;9.10;;;7.50;;
19301;SDS011;9785;59.362;12.152;2023-06-26T04:22:27;7.53;;;6.83;;
19301;SDS011;9785;59.362;12.152;2023-06-26T04:24:56;8.23;;;7.20;;
19301;SDS011;9785;59.362;12.152;2023-06-26T04:27:24;8.20;;;6.73;;
19301;SDS011;9785;59.362;12.152;2023-06-26T04:29:54;8.53;;;7.13;;
19301;SDS011;9785;59.362;12.152;2023-06-26T04:32:22;8.17;;;7.00;;
19301;SDS011;9785;59.362;12.152;2023-06-26T04:34:51;9.17;;;6.77;;
19301;SDS011;9785;59.362;12.152;2023-06-26T04:37:21;9.37;;;6.83;;
19301;SDS011;9785;59.362;12.152;2023-06-26T04:39:50;8.07;;;7.27;;
19301;SDS011;9785;59.362;12.152;2023-06-26T04:42:19;9.87;;;7.30;;
19301;SDS011;9785;59.362;12.152;2023-06-26T04:44:48;8.23;;;7.00;;
19301;SDS011;9785;59.362;12.152;2023-06-26T04:47:17;8.40;;;7.33;;
19301;SDS011;9785;59.362;12.152;2023-06-26T04:49:45;7.73;;;7.03;;
19301;SDS011;9785;59.362;12.152;2023-06-26T04:52:14;7.40;;;6.63;;
19301;SDS011;9785;59.362;12.152;2023-06-26T04:54:44;7.60;;;6.57;;
19301;SDS011;9785;59.362;12.152;2023-06-26T04:57:13;7.30;;;6.67;;
19301;SDS011;9785;59.362;12.152;2023-06-26T04:59:44;8.43;;;6.63;;
19301;SDS011;9785;59.362;12.152;2023-06-26T05:02:13;7.20;;;6.47;;
19301;SDS011;9785;59.362;12.152;2023-06-26T05:04:42;6.87;;;6.27;;
19301;SDS011;9785;59.362;12.152;2023-06-26T05:07:11;6.47;;;5.87;;
19301;SDS011;9785;59.362;12.152;2023-06-26T05:09:39;6.80;;;6.00;;
19301;SDS011;9785;59.362;12.152;2023-06-26T05:12:09;6.57;;;5.97;;
19301;SDS011;9785;59.362;12.152;2023-06-26T05:14:39;6.73;;;6.03;;
19301;SDS011;9785;59.362;12.152;2023-06-26T05:17:07;7.60;;;5.87;;
19301;SDS011;9785;59.362;12.152;2023-06-26T05:19:36;6.03;;;5.50;;
19301;SDS011;9785;59.362;12.152;2023-06-26T05:22:05;6.40;;;5.73;;
19301;SDS011;9785;59.362;12.152;2023-06-26T05:24:34;6.30;;;5.67;;
19301;SDS011;9785;59.362;12.152;2023-06-26T05:27:03;6.37;;;5.70;;
19301;SDS011;9785;59.362;12.152;2023-06-26T05:29:34;6.03;;;5.40;;
19301;SDS011;9785;59.362;12.152;2023-06-26T05:32:04;5.40;;;4.90;;
19301;SDS011;9785;59.362;12.152;2023-06-26T05:34:33;5.60;;;5.10;;
19301;SDS011;9785;59.362;12.152;2023-06-26T05:37:02;6.47;;;5.13;;
19301;SDS011;9785;59.362;12.152;2023-06-26T05:39:31;5.30;;;4.80;;
19301;SDS011;9785;59.362;12.152;2023-06-26T05:42:00;5.13;;;4.63;;
19301;SDS011;9785;59.362;12.152;2023-06-26T05:44:29;5.57;;;4.97;;
19301;SDS011;9785;59.362;12.152;2023-06-26T05:46:59;5.17;;;4.67;;
19301;SDS011;9785;59.362;12.152;2023-06-26T05:49:28;5.10;;;4.60;;
19301;SDS011;9785;59.362;12.152;2023-06-26T05:51:56;5.47;;;4.97;;
19301;SDS011;9785;59.362;12.152;2023-06-26T05:54:25;5.90;;;5.13;;
19301;SDS011;9785;59.362;12.152;2023-06-26T05:56:56;5.57;;;5.07;;
19301;SDS011;9785;59.362;12.152;2023-06-26T05:59:26;5.20;;;4.70;;
19301;SDS011;9785;59.362;12.152;2023-06-26T06:01:54;5.27;;;4.77;;
19301;SDS011;9785;59.362;12.152;2023-06-26T06:04:24;5.63;;;5.03;;
19301;SDS011;9785;59.362;12.152;2023-06-26T06:06:53;5.10;;;4.67;;
19301;SDS011;9785;59.362;12.152;2023-06-26T06:09:21;6.80;;;4.37;;
19301;SDS011;9785;59.362;12.152;2023-06-26T06:11:51;4.90;;;4.50;;
19301;SDS011;9785;59.362;12.152;2023-06-26T06:14:19;3.90;;;3.60;;
19301;SDS011;9785;59.362;12.152;2023-06-26T06:16:48;3.67;;;3.47;;
19301;SDS011;9785;59.362;12.152;2023-06-26T06:19:16;3.90;;;3.60;;
19301;SDS011;9785;59.362;12.152;2023-06-26T06:21:47;4.93;;;4.53;;
19301;SDS011;9785;59.362;12.152;2023-06-26T06:24:15;4.93;;;4.50;;
19301;SDS011;9785;59.362;12.152;2023-06-26T06:26:44;4.77;;;4.37;;
19301;SDS011;9785;59.362;12.152;2023-06-26T06:29:13;4.33;;;3.90;;
19301;SDS011;9785;59.362;12.152;2023-06-26T06:31:41;4.23;;;3.93;;
19301;SDS011;9785;59.362;12.152;2023-06-26T06:34:10;4.43;;;4.00;;
19301;SDS011;9785;59.362;12.152;2023-06-26T06:36:39;5.10;;;4.03;;
19301;SDS011;9785;59.362;12.152;2023-06-26T06:39:09;4.40;;;4.00;;
19301;SDS011;9785;59.362;12.152;2023-06-26T06:41:38;4.20;;;3.90;;
19301;SDS011;9785;59.362;12.152;2023-06-26T06:44:06;3.53;;;3.33;;
19301;SDS011;9785;59.362;12.152;2023-06-26T06:46:35;3.80;;;3.27;;
19301;SDS011;9785;59.362;12.152;2023-06-26T06:49:03;3.67;;;3.47;;
19301;SDS011;9785;59.362;12.152;2023-06-26T06:51:32;4.40;;;3.37;;
19301;SDS011;9785;59.362;12.152;2023-06-26T06:54:01;3.70;;;3.50;;
19301;SDS011;9785;59.362;12.152;2023-06-26T06:56:31;3.67;;;3.47;;
19301;SDS011;9785;59.362;12.152;2023-06-26T06:58:59;3.38;;;3.17;;
19301;SDS011;9785;59.362;12.152;2023-06-26T07:01:28;4.15;;;3.63;;
19301;SDS011;9785;59.362;12.152;2023-06-26T07:03:57;3.95;;;3.70;;
19301;SDS011;9785;59.362;12.152;2023-06-26T07:06:26;3.72;;;3.50;;
19301;SDS011;9785;59.362;12.152;2023-06-26T07:08:54;3.90;;;3.60;;
19301;SDS011;9785;59.362;12.152;2023-06-26T07:11:23;3.88;;;3.40;;
19301;SDS011;9785;59.362;12.152;2023-06-26T07:13:53;3.92;;;3.63;;
19301;SDS011;9785;59.362;12.152;2023-06-26T07:16:21;3.83;;;3.60;;
19301;SDS011;9785;59.362;12.152;2023-06-26T07:18:50;4.10;;;3.80;;
19301;SDS011;9785;59.362;12.152;2023-06-26T07:21:19;3.97;;;3.67;;
19301;SDS011;9785;59.362;12.152;2023-06-26T07:23:49;3.67;;;3.47;;
19301;SDS011;9785;59.362;12.152;2023-06-26T07:26:18;4.20;;;3.80;;
19301;SDS011;9785;59.362;12.152;2023-06-26T07:29:07;5.60;;;3.83;;
19301;SDS011;9785;59.362;12.152;2023-06-26T07:31:35;4.05;;;3.63;;
19301;SDS011;9785;59.362;12.152;2023-06-26T07:34:04;3.90;;;3.60;;
19301;SDS011;9785;59.362;12.152;2023-06-26T07:36:32;4.00;;;3.80;;
19301;SDS011;9785;59.362;12.152;2023-06-26T07:39:01;3.78;;;3.58;;
19301;SDS011;9785;59.362;12.152;2023-06-26T07:41:29;4.10;;;3.80;;
19301;SDS011;9785;59.362;12.152;2023-06-26T07:43:58;4.35;;;3.95;;
19301;SDS011;9785;59.362;12.152;2023-06-26T07:46:28;4.30;;;4.00;;
19301;SDS011;9785;59.362;12.152;2023-06-26T07:48:57;6.05;;;3.75;;
19301;SDS011;9785;59.362;12.152;2023-06-26T07:51:25;3.88;;;3.63;;
19301;SDS011;9785;59.362;12.152;2023-06-26T07:53:54;4.80;;;3.85;;
19301;SDS011;9785;59.362;12.152;2023-06-26T07:56:23;4.38;;;4.07;;
19301;SDS011;9785;59.362;12.152;2023-06-26T07:58:51;4.20;;;3.90;;
19301;SDS011;9785;59.362;12.152;2023-06-26T08:01:20;4.20;;;3.80;;
19301;SDS011;9785;59.362;12.152;2023-06-26T08:03:50;4.28;;;3.88;;
19301;SDS011;9785;59.362;12.152;2023-06-26T08:06:19;8.10;;;4.72;;
19301;SDS011;9785;59.362;12.152;2023-06-26T08:08:47;3.85;;;3.63;;
19301;SDS011;9785;59.362;12.152;2023-06-26T08:11:16;4.93;;;4.22;;
19301;SDS011;9785;59.362;12.152;2023-06-26T08:13:44;4.40;;;4.10;;
19301;SDS011;9785;59.362;12.152;2023-06-26T08:16:13;4.45;;;4.05;;
19301;SDS011;9785;59.362;12.152;2023-06-26T08:18:41;4.95;;;3.80;;
19301;SDS011;9785;59.362;12.152;2023-06-26T08:21:11;4.60;;;4.20;;
19301;SDS011;9785;59.362;12.152;2023-06-26T08:23:40;4.15;;;3.85;;
19301;SDS011;9785;59.362;12.152;2023-06-26T08:26:09;4.35;;;3.97;;
19301;SDS011;9785;59.362;12.152;2023-06-26T08:28:37;3.65;;;3.35;;
19301;SDS011;9785;59.362;12.152;2023-06-26T08:31:06;4.00;;;3.65;;
19301;SDS011;9785;59.362;12.152;2023-06-26T08:33:35;4.43;;;4.00;;
19301;SDS011;9785;59.362;12.152;2023-06-26T08:36:03;4.25;;;3.95;;
19301;SDS011;9785;59.362;12.152;2023-06-26T08:38:33;7.88;;;4.78;;
19301;SDS011;9785;59.362;12.152;2023-06-26T08:41:02;7.57;;;3.80;;
19301;SDS011;9785;59.362;12.152;2023-06-26T08:43:35;4.25;;;3.95;;
19301;SDS011;9785;59.362;12.152;2023-06-26T08:46:03;4.32;;;4.03;;
19301;SDS011;9785;59.362;12.152;2023-06-26T08:48:32;4.18;;;3.88;;
19301;SDS011;9785;59.362;12.152;2023-06-26T08:51:04;4.43;;;4.07;;
19301;SDS011;9785;59.362;12.152;2023-06-26T08:53:36;4.10;;;3.70;;
19301;SDS011;9785;59.362;12.152;2023-06-26T08:56:08;4.28;;;3.97;;
19301;SDS011;9785;59.362;12.152;2023-06-26T08:58:37;4.43;;;4.03;;
19301;SDS011;9785;59.362;12.152;2023-06-26T09:01:09;4.53;;;4.13;;
19301;SDS011;9785;59.362;12.152;2023-06-26T09:03:38;4.43;;;4.13;;
19301;SDS011;9785;59.362;12.152;2023-06-26T09:06:08;4.55;;;4.13;;
19301;SDS011;9785;59.362;12.152;2023-06-26T09:08:38;5.05;;;4.10;;
19301;SDS011;9785;59.362;12.152;2023-06-26T09:11:06;5.10;;;4.20;;
19301;SDS011;9785;59.362;12.152;2023-06-26T09:13:35;5.47;;;4.32;;
19301;SDS011;9785;59.362;12.152;2023-06-26T09:16:06;4.50;;;4.10;;
19301;SDS011;9785;59.362;12.152;2023-06-26T09:18:35;4.38;;;4.00;;
19301;SDS011;9785;59.362;12.152;2023-06-26T09:21:06;4.20;;;3.90;;
19301;SDS011;9785;59.362;12.152;2023-06-26T09:23:34;4.35;;;3.95;;
19301;SDS011;9785;59.362;12.152;2023-06-26T09:26:05;4.28;;;3.97;;
19301;SDS011;9785;59.362;12.152;2023-06-26T09:28:34;4.10;;;3.80;;
19301;SDS011;9785;59.362;12.152;2023-06-26T09:31:03;4.10;;;3.80;;
19301;SDS011;9785;59.362;12.152;2023-06-26T09:33:34;5.65;;;4.25;;
19301;SDS011;9785;59.362;12.152;2023-06-26T09:36:04;5.05;;;3.83;;
19301;SDS011;9785;59.362;12.152;2023-06-26T09:38:34;4.10;;;3.78;;
19301;SDS011;9785;59.362;12.152;2023-06-26T09:41:02;4.50;;;4.10;;
19301;SDS011;9785;59.362;12.152;2023-06-26T09:43:32;4.05;;;3.75;;
19301;SDS011;9785;59.362;12.152;2023-06-26T09:46:03;4.07;;;3.78;;
19301;SDS011;9785;59.362;12.152;2023-06-26T09:48:32;5.25;;;3.70;;
19301;SDS011;9785;59.362;12.152;2023-06-26T09:51:01;4.57;;;3.88;;
19301;SDS011;9785;59.362;12.152;2023-06-26T09:53:39;4.25;;;3.72;;
19301;SDS011;9785;59.362;12.152;2023-06-26T09:56:14;4.45;;;3.30;;
19301;SDS011;9785;59.362;12.152;2023-06-26T09:58:45;5.22;;;3.70;;
19301;SDS011;9785;59.362;12.152;2023-06-26T10:01:14;4.40;;;3.67;;
19301;SDS011;9785;59.362;12.152;2023-06-26T10:03:42;3.90;;;3.50;;
19301;SDS011;9785;59.362;12.152;2023-06-26T10:06:11;3.85;;;3.55;;
19301;SDS011;9785;59.362;12.152;2023-06-26T10:08:40;5.53;;;3.45;;
19301;SDS011;9785;59.362;12.152;2023-06-26T10:11:12;3.40;;;3.20;;
19301;SDS011;9785;59.362;12.152;2023-06-26T10:13:42;5.22;;;3.70;;
19301;SDS011;9785;59.362;12.152;2023-06-26T10:16:14;7.07;;;3.50;;
19301;SDS011;9785;59.362;12.152;2023-06-26T10:18:45;3.80;;;3.50;;
19301;SDS011;9785;59.362;12.152;2023-06-26T10:21:14;3.92;;;3.55;;
19301;SDS011;9785;59.362;12.152;2023-06-26T10:23:43;3.38;;;3.20;;
19301;SDS011;9785;59.362;12.152;2023-06-26T10:26:12;3.50;;;3.30;;
19301;SDS011;9785;59.362;12.152;2023-06-26T10:28:42;4.32;;;3.35;;
19301;SDS011;9785;59.362;12.152;2023-06-26T10:31:11;3.53;;;3.33;;
19301;SDS011;9785;59.362;12.152;2023-06-26T10:33:42;3.60;;;3.40;;
19301;SDS011;9785;59.362;12.152;2023-06-26T10:36:12;3.60;;;3.30;;
19301;SDS011;9785;59.362;12.152;2023-06-26T10:38:48;3.67;;;3.40;;
19301;SDS011;9785;59.362;12.152;2023-06-26T10:41:19;4.15;;;3.88;;
19301;SDS011;9785;59.362;12.152;2023-06-26T10:43:49;3.92;;;3.63;;
19301;SDS011;9785;59.362;12.152;2023-06-26T10:46:18;4.30;;;3.90;;
19301;SDS011;9785;59.362;12.152;2023-06-26T10:48:58;3.80;;;3.50;;
19301;SDS011;9785;59.362;12.152;2023-06-26T10:51:27;4.05;;;3.80;;
19301;SDS011;9785;59.362;12.152;2023-06-26T10:53:56;4.25;;;3.80;;
19301;SDS011;9785;59.362;12.152;2023-06-26T10:56:43;4.22;;;3.70;;
19301;SDS011;9785;59.362;12.152;2023-06-26T10:59:15;4.57;;;4.18;;
19301;SDS011;9785;59.362;12.152;2023-06-26T11:01:44;6.72;;;4.20;;
19301;SDS011;9785;59.362;12.152;2023-06-26T11:04:14;4.45;;;3.80;;
19301;SDS011;9785;59.362;12.152;2023-06-26T11:06:45;4.50;;;4.20;;
19301;SDS011;9785;59.362;12.152;2023-06-26T11:09:17;7.70;;;4.40;;
19301;SDS011;9785;59.362;12.152;2023-06-26T11:11:55;4.72;;;4.32;;
19301;SDS011;9785;59.362;12.152;2023-06-26T11:14:31;5.65;;;4.22;;
19301;SDS011;9785;59.362;12.152;2023-06-26T11:17:04;4.70;;;4.30;;
19301;SDS011;9785;59.362;12.152;2023-06-26T11:19:34;4.85;;;4.20;;
19301;SDS011;9785;59.362;12.152;2023-06-26T11:22:03;4.57;;;4.18;;
19301;SDS011;9785;59.362;12.152;2023-06-26T11:24:32;4.28;;;3.97;;
19301;SDS011;9785;59.362;12.152;2023-06-26T11:27:01;7.50;;;4.15;;
19301;SDS011;9785;59.362;12.152;2023-06-26T11:29:31;4.68;;;4.28;;
19301;SDS011;9785;59.362;12.152;2023-06-26T11:32:01;4.40;;;4.10;;
19301;SDS011;9785;59.362;12.152;2023-06-26T11:34:34;4.60;;;4.30;;
19301;SDS011;9785;59.362;12.152;2023-06-26T11:37:04;4.28;;;3.95;;
19301;SDS011;9785;59.362;12.152;2023-06-26T11:39:34;4.40;;;4.00;;
19301;SDS011;9785;59.362;12.152;2023-06-26T11:42:04;4.40;;;4.00;;
19301;SDS011;9785;59.362;12.152;2023-06-26T11:44:33;4.03;;;3.80;;
19301;SDS011;9785;59.362;12.152;2023-06-26T11:47:07;4.30;;;4.00;;
19301;SDS011;9785;59.362;12.152;2023-06-26T11:49:37;5.45;;;4.45;;
19301;SDS011;9785;59.362;12.152;2023-06-26T11:52:07;3.92;;;3.63;;
19301;SDS011;9785;59.362;12.152;2023-06-26T11:54:35;4.20;;;3.83;;
19301;SDS011;9785;59.362;12.152;2023-06-26T11:57:05;5.28;;;3.90;;
19301;SDS011;9785;59.362;12.152;2023-06-26T11:59:34;3.80;;;3.50;;
19301;SDS011;9785;59.362;12.152;2023-06-26T12:02:06;4.75;;;3.63;;
19301;SDS011;9785;59.362;12.152;2023-06-26T12:04:36;4.57;;;4.00;;
19301;SDS011;9785;59.362;12.152;2023-06-26T12:07:07;4.57;;;3.53;;
19301;SDS011;9785;59.362;12.152;2023-06-26T12:09:39;4.63;;;3.83;;
19301;SDS011;9785;59.362;12.152;2023-06-26T12:12:10;4.53;;;3.85;;
19301;SDS011;9785;59.362;12.152;2023-06-26T12:14:39;4.78;;;3.92;;
19301;SDS011;9785;59.362;12.152;2023-06-26T12:17:08;4.13;;;3.83;;
19301;SDS011;9785;59.362;12.152;2023-06-26T12:19:38;4.97;;;3.97;;
19301;SDS011;9785;59.362;12.152;2023-06-26T12:22:08;6.30;;;3.65;;
19301;SDS011;9785;59.362;12.152;2023-06-26T12:24:38;4.07;;;3.78;;
19301;SDS011;9785;59.362;12.152;2023-06-26T12:27:10;5.43;;;3.80;;
19301;SDS011;9785;59.362;12.152;2023-06-26T12:29:40;4.07;;;3.78;;
19301;SDS011;9785;59.362;12.152;2023-06-26T12:32:11;4.15;;;3.80;;
19301;SDS011;9785;59.362;12.152;2023-06-26T12:34:41;3.90;;;3.60;;
19301;SDS011;9785;59.362;12.152;2023-06-26T12:37:11;3.92;;;3.65;;
19301;SDS011;9785;59.362;12.152;2023-06-26T12:39:46;4.85;;;4.38;;
19301;SDS011;9785;59.362;12.152;2023-06-26T12:42:16;4.28;;;3.90;;
19301;SDS011;9785;59.362;12.152;2023-06-26T12:44:45;3.97;;;3.78;;
19301;SDS011;9785;59.362;12.152;2023-06-26T12:47:14;3.88;;;3.67;;
19301;SDS011;9785;59.362;12.152;2023-06-26T12:49:44;4.10;;;3.90;;
19301;SDS011;9785;59.362;12.152;2023-06-26T12:52:15;4.25;;;3.95;;
19301;SDS011;9785;59.362;12.152;2023-06-26T12:54:45;4.28;;;4.00;;
19301;SDS011;9785;59.362;12.152;2023-06-26T12:57:14;4.53;;;4.20;;
19301;SDS011;9785;59.362;12.152;2023-06-26T12:59:43;10.25;;;4.28;;
19301;SDS011;9785;59.362;12.152;2023-06-26T13:02:11;5.90;;;4.25;;
19301;SDS011;9785;59.362;12.152;2023-06-26T13:04:40;4.97;;;4.22;;
19301;SDS011;9785;59.362;12.152;2023-06-26T13:07:11;4.45;;;4.03;;
19301;SDS011;9785;59.362;12.152;2023-06-26T13:09:41;4.43;;;4.03;;
19301;SDS011;9785;59.362;12.152;2023-06-26T13:12:12;4.78;;;4.03;;
19301;SDS011;9785;59.362;12.152;2023-06-26T13:14:40;4.32;;;4.00;;
19301;SDS011;9785;59.362;12.152;2023-06-26T13:17:10;4.80;;;4.40;;
19301;SDS011;9785;59.362;12.152;2023-06-26T13:19:39;4.90;;;4.38;;
19301;SDS011;9785;59.362;12.152;2023-06-26T13:22:08;4.75;;;4.38;;
19301;SDS011;9785;59.362;12.152;2023-06-26T13:24:37;4.80;;;4.35;;
19301;SDS011;9785;59.362;12.152;2023-06-26T13:27:07;5.35;;;4.85;;
19301;SDS011;9785;59.362;12.152;2023-06-26T13:29:35;5.35;;;4.18;;
19301;SDS011;9785;59.362;12.152;2023-06-26T13:32:04;4.63;;;4.32;;
19301;SDS011;9785;59.362;12.152;2023-06-26T13:34:33;4.70;;;4.10;;
19301;SDS011;9785;59.362;12.152;2023-06-26T13:37:01;4.93;;;4.18;;
19301;SDS011;9785;59.362;12.152;2023-06-26T13:39:30;4.75;;;4.43;;
19301;SDS011;9785;59.362;12.152;2023-06-26T13:41:59;5.13;;;4.63;;
19301;SDS011;9785;59.362;12.152;2023-06-26T13:44:29;4.40;;;4.13;;
19301;SDS011;9785;59.362;12.152;2023-06-26T13:47:06;7.03;;;4.60;;
19301;SDS011;9785;59.362;12.152;2023-06-26T13:49:36;4.40;;;4.10;;
19301;SDS011;9785;59.362;12.152;2023-06-26T13:52:04;4.28;;;4.03;;
19301;SDS011;9785;59.362;12.152;2023-06-26T13:54:34;4.47;;;4.18;;
19301;SDS011;9785;59.362;12.152;2023-06-26T13:57:03;4.38;;;4.00;;
19301;SDS011;9785;59.362;12.152;2023-06-26T13:59:34;5.20;;;4.38;;
19301;SDS011;9785;59.362;12.152;2023-06-26T14:02:02;4.28;;;3.97;;
19301;SDS011;9785;59.362;12.152;2023-06-26T14:04:32;4.50;;;4.20;;
19301;SDS011;9785;59.362;12.152;2023-06-26T14:07:00;4.15;;;3.85;;
19301;SDS011;9785;59.362;12.152;2023-06-26T14:09:29;4.30;;;4.00;;
19301;SDS011;9785;59.362;12.152;2023-06-26T14:11:58;6.68;;;4.15;;
19301;SDS011;9785;59.362;12.152;2023-06-26T14:14:26;4.10;;;3.90;;
19301;SDS011;9785;59.362;12.152;2023-06-26T14:16:56;4.20;;;3.90;;
19301;SDS011;9785;59.362;12.152;2023-06-26T14:19:25;6.15;;;3.75;;
19301;SDS011;9785;59.362;12.152;2023-06-26T14:21:54;3.90;;;3.60;;
19301;SDS011;9785;59.362;12.152;2023-06-26T14:24:23;4.80;;;4.10;;
19301;SDS011;9785;59.362;12.152;2023-06-26T14:26:51;4.40;;;3.95;;
19301;SDS011;9785;59.362;12.152;2023-06-26T14:29:20;3.97;;;3.70;;
19301;SDS011;9785;59.362;12.152;2023-06-26T14:31:49;4.95;;;3.75;;
19301;SDS011;9785;59.362;12.152;2023-06-26T14:34:23;3.90;;;3.60;;
19301;SDS011;9785;59.362;12.152;2023-06-26T14:36:51;3.95;;;3.75;;
19301;SDS011;9785;59.362;12.152;2023-06-26T14:39:20;4.07;;;3.83;;
19301;SDS011;9785;59.362;12.152;2023-06-26T14:41:49;5.15;;;3.60;;
19301;SDS011;9785;59.362;12.152;2023-06-26T14:44:18;4.00;;;3.70;;
19301;SDS011;9785;59.362;12.152;2023-06-26T14:46:47;4.28;;;4.00;;
19301;SDS011;9785;59.362;12.152;2023-06-26T14:49:16;4.25;;;3.85;;
19301;SDS011;9785;59.362;12.152;2023-06-26T14:51:46;4.30;;;4.00;;
19301;SDS011;9785;59.362;12.152;2023-06-26T14:54:15;3.97;;;3.72;;
19301;SDS011;9785;59.362;12.152;2023-06-26T14:56:44;4.80;;;3.80;;
19301;SDS011;9785;59.362;12.152;2023-06-26T14:59:13;4.50;;;4.10;;
19301;SDS011;9785;59.362;12.152;2023-06-26T15:01:42;4.05;;;3.78;;